Time;durP1;ratioP1;P1;durP2;ratioP2;P2;SDS_P1;SDS_P2;PMS_P1;PMS_P2;Temp;Humidity;BMP_temperature;BMP_pressure;BME280_temperature;BME280_humidity;BME280_pressure;Samples;Min_cycle;Max_cycle;Signal;HPM_P1;HPM_P2
2023/05/16 00:00:16;;;;;;;2.97;1.60;;;;;;;20.60;47.75;101858.13;5122417;27;20046;-66
2023/05/16 00:02:42;;;;;;;2.15;1.45;;;;;;;20.59;47.47;101851.16;5118308;27;20070;-66
2023/05/16 00:05:09;;;;;;;2.58;1.40;;;;;;;20.59;47.58;101845.88;5123111;27;20047;-66
2023/05/16 00:07:35;;;;;;;2.40;1.42;;;;;;;20.62;47.55;101853.50;5118901;27;20128;-65
2023/05/16 00:10:01;;;;;;;2.50;1.88;;;;;;;20.62;47.58;101856.13;5123381;27;20051;-66
2023/05/16 00:12:28;;;;;;;2.40;1.75;;;;;;;20.59;47.38;101856.47;5120740;27;20496;-66
2023/05/16 00:14:54;;;;;;;2.33;1.58;;;;;;;20.58;47.33;101864.56;5122661;27;20068;-66
2023/05/16 00:17:20;;;;;;;3.97;1.65;;;;;;;20.57;47.51;101858.44;5120256;27;20035;-66
2023/05/16 00:19:47;;;;;;;1.77;1.40;;;;;;;20.59;47.30;101863.56;5117422;27;20392;-66
2023/05/16 00:22:14;;;;;;;2.83;1.33;;;;;;;20.54;47.53;101860.59;5117738;27;20031;-66
2023/05/16 00:24:40;;;;;;;2.83;1.40;;;;;;;20.53;47.44;101865.03;5121131;27;20150;-66
2023/05/16 00:27:06;;;;;;;2.22;1.50;;;;;;;20.52;47.51;101864.22;5118617;27;20066;-65
2023/05/16 00:29:35;;;;;;;2.70;1.45;;;;;;;20.47;47.55;101855.94;5120976;27;20314;-66
2023/05/16 00:32:01;;;;;;;2.33;1.53;;;;;;;20.48;47.55;101857.59;5118435;27;20031;-66
2023/05/16 00:34:26;;;;;;;2.30;1.35;;;;;;;20.46;47.62;101856.91;5120774;27;20039;-65
2023/05/16 00:36:52;;;;;;;1.98;1.42;;;;;;;20.45;47.50;101854.41;5123558;27;20050;-66
2023/05/16 00:39:18;;;;;;;2.67;1.42;;;;;;;20.45;47.56;101863.19;5117011;27;20047;-65
2023/05/16 00:41:45;;;;;;;3.65;1.40;;;;;;;20.46;47.71;101856.06;5121954;27;20039;-66
2023/05/16 00:44:10;;;;;;;2.53;1.20;;;;;;;20.45;47.69;101851.75;5119976;27;20511;-66
2023/05/16 00:46:36;;;;;;;2.58;1.50;;;;;;;20.48;47.50;101856.75;5116956;27;20048;-66
2023/05/16 00:49:02;;;;;;;2.85;1.38;;;;;;;20.42;47.75;101862.66;5121846;27;21142;-65
2023/05/16 00:51:28;;;;;;;3.40;1.58;;;;;;;20.43;47.59;101867.81;5123022;27;20035;-65
2023/05/16 00:53:55;;;;;;;1.80;1.00;;;;;;;20.40;47.81;101865.44;5117707;27;20053;-66
2023/05/16 00:56:21;;;;;;;3.38;1.40;;;;;;;20.40;47.56;101857.50;5138813;27;20047;-66
2023/05/16 00:58:47;;;;;;;4.53;1.75;;;;;;;20.38;47.76;101851.56;5119364;27;20075;-64
2023/05/16 01:01:13;;;;;;;4.55;1.58;;;;;;;20.39;47.74;101860.31;5117270;27;20036;-65
2023/05/16 01:03:39;;;;;;;3.33;1.35;;;;;;;20.38;47.64;101856.00;5120828;27;20564;-66
2023/05/16 01:06:05;;;;;;;0.95;0.88;;;;;;;20.37;47.70;101855.19;5119723;27;20047;-66
2023/05/16 01:08:31;;;;;;;2.58;1.20;;;;;;;20.39;47.59;101860.31;5115088;27;20069;-64
2023/05/16 01:11:18;;;;;;;5.25;1.52;;;;;;;20.37;47.71;101860.47;5118356;27;20035;-66
2023/05/16 01:13:59;;;;;;;2.13;1.20;;;;;;;20.36;47.72;101863.28;5117286;27;20731;-66
2023/05/16 01:17:04;;;;;;;2.05;1.20;;;;;;;20.35;47.53;101861.63;5118800;27;20043;-65
2023/05/16 01:19:57;;;;;;;2.25;1.20;;;;;;;20.36;47.54;101871.22;5117981;27;20027;-66
2023/05/16 01:22:46;;;;;;;2.65;1.50;;;;;;;20.31;47.73;101862.94;5118090;27;20043;-66
2023/05/16 01:25:37;;;;;;;2.60;1.40;;;;;;;20.32;47.82;101864.59;5117801;27;20118;-66
2023/05/16 01:28:03;;;;;;;1.60;1.08;;;;;;;20.29;47.77;101868.38;5115044;27;20043;-66
2023/05/16 01:30:35;;;;;;;2.10;1.33;;;;;;;20.28;47.71;101869.34;5122269;27;20031;-66
2023/05/16 01:33:01;;;;;;;3.28;1.30;;;;;;;20.27;47.61;101865.03;5113833;27;20469;-66
2023/05/16 01:35:27;;;;;;;1.20;1.10;;;;;;;20.30;47.70;101866.56;5115549;27;20031;-65
2023/05/16 01:38:24;;;;;;;1.75;1.40;;;;;;;20.29;47.76;101859.59;5117275;27;20059;-65
2023/05/16 01:40:56;;;;;;;3.60;1.50;;;;;;;20.27;47.63;101858.91;5120150;28;20051;-65
2023/05/16 01:43:36;;;;;;;3.30;1.50;;;;;;;20.30;47.66;101859.47;5122791;27;20035;-63
2023/05/16 01:46:08;;;;;;;3.33;1.70;;;;;;;20.19;47.67;101852.63;5130759;27;20057;-66
2023/05/16 01:49:17;;;;;;;3.20;1.27;;;;;;;20.28;47.54;101864.06;5141434;27;20047;-66
2023/05/16 01:51:50;;;;;;;2.42;1.40;;;;;;;20.16;47.60;101852.94;5115762;27;20062;-65
2023/05/16 01:54:18;;;;;;;3.20;1.40;;;;;;;20.24;47.77;101865.34;5124961;27;20039;-65
2023/05/16 01:56:51;;;;;;;3.50;1.52;;;;;;;20.21;47.73;101866.50;5124341;27;20095;-66
2023/05/16 01:59:20;;;;;;;2.50;1.35;;;;;;;20.15;47.94;101863.69;5125941;27;20031;-66
2023/05/16 02:01:46;;;;;;;3.78;1.50;;;;;;;20.19;47.84;101868.47;5127504;27;20027;-66
2023/05/16 02:04:12;;;;;;;1.92;1.15;;;;;;;20.19;47.73;101867.66;5126749;27;20527;-65
2023/05/16 02:06:38;;;;;;;1.55;1.45;;;;;;;20.17;47.85;101864.34;5124847;27;20028;-64
2023/05/16 02:09:03;;;;;;;1.75;1.08;;;;;;;20.18;47.68;101869.47;5124905;27;20548;-65
2023/05/16 02:11:29;;;;;;;2.25;1.13;;;;;;;20.18;47.51;101863.34;5123553;27;20032;-65
2023/05/16 02:13:54;;;;;;;2.88;1.10;;;;;;;20.13;47.78;101863.84;5123549;27;20039;-65
2023/05/16 02:16:20;;;;;;;1.92;0.98;;;;;;;20.13;47.71;101865.66;5120758;27;20052;-66
2023/05/16 02:18:45;;;;;;;2.58;1.17;;;;;;;20.14;47.78;101870.78;5122813;27;20393;-65
2023/05/16 02:21:11;;;;;;;3.47;1.40;;;;;;;20.13;47.79;101874.41;5126125;27;20061;-65
2023/05/16 02:23:36;;;;;;;3.97;1.40;;;;;;;20.12;47.91;101864.00;5125213;27;20092;-66
2023/05/16 02:26:02;;;;;;;2.47;1.00;;;;;;;20.10;47.84;101860.66;5126921;27;20050;-65
2023/05/16 02:28:28;;;;;;;2.05;1.20;;;;;;;20.08;47.78;101860.81;5122950;27;20492;-66
2023/05/16 02:31:00;;;;;;;3.30;1.05;;;;;;;20.06;47.84;101861.94;5123376;27;20031;-65
2023/05/16 02:33:27;;;;;;;2.55;1.48;;;;;;;20.10;47.79;101863.28;5127692;27;20500;-65
2023/05/16 02:35:53;;;;;;;3.00;1.48;;;;;;;20.06;47.78;101861.94;5125133;27;20140;-65
2023/05/16 02:38:19;;;;;;;2.97;1.00;;;;;;;20.05;47.70;101855.84;5122337;27;20109;-66
2023/05/16 02:40:48;;;;;;;2.00;1.20;;;;;;;20.07;47.54;101867.09;5130293;27;20110;-66
2023/05/16 02:43:14;;;;;;;1.90;1.57;;;;;;;20.03;47.73;101863.09;5126513;27;20054;-66
2023/05/16 02:45:41;;;;;;;3.28;1.27;;;;;;;20.09;47.80;101865.09;5123477;27;20031;-66
2023/05/16 02:48:06;;;;;;;2.25;0.90;;;;;;;20.07;47.75;101863.59;5122919;27;20039;-66
2023/05/16 02:50:34;;;;;;;1.38;1.13;;;;;;;20.04;47.87;101859.47;5122743;27;20031;-65
2023/05/16 02:53:01;;;;;;;3.03;1.45;;;;;;;20.05;47.84;101871.69;5110937;27;20023;-66
2023/05/16 02:55:27;;;;;;;3.97;1.25;;;;;;;20.02;47.79;101869.38;5118550;27;20117;-65
2023/05/16 02:57:53;;;;;;;2.35;1.17;;;;;;;20.02;47.86;101863.25;5121228;27;20051;-66
2023/05/16 03:00:19;;;;;;;2.63;1.05;;;;;;;20.05;47.69;101870.88;5121771;27;20035;-65
2023/05/16 03:02:46;;;;;;;3.03;1.20;;;;;;;20.02;47.78;101865.91;5124258;27;20036;-65
2023/05/16 03:05:11;;;;;;;2.17;1.23;;;;;;;20.01;47.77;101872.19;5121301;27;21548;-66
2023/05/16 03:07:37;;;;;;;1.30;1.00;;;;;;;19.99;47.83;101871.50;5124865;27;20035;-66
2023/05/16 03:10:05;;;;;;;2.63;0.98;;;;;;;20.00;47.87;101875.81;5116448;27;20089;-65
2023/05/16 03:12:30;;;;;;;1.35;0.95;;;;;;;19.98;47.82;101878.59;5122213;27;20133;-66
2023/05/16 03:14:56;;;;;;;1.70;1.02;;;;;;;19.97;47.88;101879.59;5126613;27;20050;-65
2023/05/16 03:17:21;;;;;;;2.65;1.17;;;;;;;19.96;47.87;101883.22;5119413;27;20043;-65
2023/05/16 03:19:48;;;;;;;1.38;1.00;;;;;;;19.86;47.94;101864.81;5119658;27;20061;-65
2023/05/16 03:22:13;;;;;;;1.63;1.52;;;;;;;19.92;47.90;101879.22;5120764;27;20035;-65
2023/05/16 03:24:41;;;;;;;4.68;1.05;;;;;;;19.94;47.78;101885.19;5123500;27;20485;-65
2023/05/16 03:27:10;;;;;;;1.60;1.00;;;;;;;19.93;47.82;101880.91;5122337;27;20406;-66
2023/05/16 03:29:36;;;;;;;1.75;1.02;;;;;;;19.96;47.82;101891.16;5117872;27;20046;-65
2023/05/16 03:32:02;;;;;;;1.75;1.10;;;;;;;19.91;47.87;101875.72;5125265;27;20031;-65
2023/05/16 03:34:27;;;;;;;2.28;1.00;;;;;;;19.91;47.92;101883.66;5107817;27;20528;-65
2023/05/16 03:36:53;;;;;;;3.60;1.40;;;;;;;19.91;47.88;101885.47;5120856;27;21223;-65
2023/05/16 03:39:19;;;;;;;2.15;1.27;;;;;;;19.91;47.93;101880.19;5124720;27;20047;-65
2023/05/16 03:41:44;;;;;;;3.05;0.98;;;;;;;19.90;47.78;101889.94;5118060;27;20043;-65
2023/05/16 03:44:10;;;;;;;1.98;1.15;;;;;;;19.91;47.82;101891.59;5123536;27;20054;-66
2023/05/16 03:46:36;;;;;;;2.03;1.27;;;;;;;19.91;47.88;101891.59;5125074;27;20035;-66
2023/05/16 03:49:01;;;;;;;2.00;1.00;;;;;;;19.88;47.86;101888.44;5124142;27;20123;-65
2023/05/16 03:51:27;;;;;;;0.88;0.80;;;;;;;19.88;47.80;101899.00;5120320;27;20027;-65
2023/05/16 03:53:53;;;;;;;1.35;1.15;;;;;;;19.88;47.83;101906.94;5125305;27;20043;-65
2023/05/16 03:56:18;;;;;;;4.07;1.02;;;;;;;19.79;47.87;101889.38;5124791;27;20753;-66
2023/05/16 03:58:44;;;;;;;2.17;0.80;;;;;;;19.88;47.76;101904.28;5123849;27;20031;-66
2023/05/16 04:01:09;;;;;;;1.80;0.90;;;;;;;19.83;47.91;101901.28;5120566;27;20039;-66
2023/05/16 04:03:37;;;;;;;1.95;1.05;;;;;;;19.86;47.93;101911.56;5122394;27;20058;-65
2023/05/16 04:06:03;;;;;;;2.08;1.08;;;;;;;19.84;47.84;101911.72;5121027;27;20043;-65
2023/05/16 04:08:28;;;;;;;2.45;1.13;;;;;;;19.83;47.93;101915.34;5121574;27;20043;-65
2023/05/16 04:10:54;;;;;;;3.17;1.15;;;;;;;19.85;47.78;101923.13;5121085;27;20039;-65
2023/05/16 04:13:20;;;;;;;1.33;0.85;;;;;;;19.83;47.78;101915.34;5119679;27;20039;-65
2023/05/16 04:15:45;;;;;;;2.03;1.17;;;;;;;19.82;47.80;101918.97;5115582;27;21084;-65
2023/05/16 04:18:12;;;;;;;1.10;0.98;;;;;;;19.81;47.81;101917.31;5119761;27;20055;-66
2023/05/16 04:20:37;;;;;;;2.28;1.10;;;;;;;19.83;47.75;101925.09;5120509;27;20088;-67
2023/05/16 04:23:03;;;;;;;3.03;1.20;;;;;;;19.83;47.71;101917.16;5122698;27;20053;-67
2023/05/16 04:25:30;;;;;;;3.88;1.98;;;;;;;19.79;47.92;101924.56;5117283;27;20043;-66
2023/05/16 04:27:56;;;;;;;1.85;1.00;;;;;;;19.79;47.84;101932.50;5120881;27;20073;-67
2023/05/16 04:30:21;;;;;;;2.05;1.20;;;;;;;19.79;47.96;101934.31;5117903;27;20038;-67
2023/05/16 04:32:47;;;;;;;1.95;0.90;;;;;;;19.70;47.91;101908.78;5120440;27;20063;-67
2023/05/16 04:35:12;;;;;;;1.20;1.00;;;;;;;19.80;47.75;101934.16;5116774;27;20042;-68
2023/05/16 04:37:38;;;;;;;2.78;0.88;;;;;;;19.82;47.82;101936.63;5122766;27;20050;-67
2023/05/16 04:40:06;;;;;;;1.90;1.10;;;;;;;19.77;47.81;101939.75;5119778;27;20056;-67
2023/05/16 04:42:32;;;;;;;1.60;0.98;;;;;;;19.79;47.78;101934.31;5117550;27;20084;-67
2023/05/16 04:44:57;;;;;;;3.08;0.82;;;;;;;19.78;47.90;101940.56;5122468;27;20039;-67
2023/05/16 04:47:23;;;;;;;1.77;0.80;;;;;;;19.79;47.70;101934.31;5122687;27;20043;-68
2023/05/16 04:49:48;;;;;;;3.25;1.50;;;;;;;19.80;47.82;101943.91;5114869;27;20043;-67
2023/05/16 04:52:14;;;;;;;1.92;0.93;;;;;;;19.77;47.84;101938.91;5118328;27;20050;-66
2023/05/16 04:54:40;;;;;;;2.22;1.08;;;;;;;19.78;47.70;101937.94;5119761;27;20046;-66
2023/05/16 04:57:05;;;;;;;2.35;0.90;;;;;;;19.77;47.78;101941.56;5117032;27;20066;-67
2023/05/16 04:59:31;;;;;;;2.15;1.13;;;;;;;19.78;47.71;101938.75;5120051;27;20031;-67
2023/05/16 05:01:56;;;;;;;2.50;1.10;;;;;;;19.78;47.67;101945.88;5121916;27;20044;-66
2023/05/16 05:04:22;;;;;;;2.10;1.08;;;;;;;19.75;47.80;101944.34;5118477;27;20043;-67
2023/05/16 05:06:48;;;;;;;4.18;1.02;;;;;;;19.78;47.62;101951.16;5120345;27;20039;-68
2023/05/16 05:09:13;;;;;;;1.88;1.13;;;;;;;19.79;47.60;101942.25;5117565;27;20049;-67
2023/05/16 05:11:39;;;;;;;1.88;1.08;;;;;;;19.79;47.72;101944.88;5117725;27;20427;-67
2023/05/16 05:14:04;;;;;;;2.15;1.20;;;;;;;19.78;47.60;101944.06;5118729;27;20043;-67
2023/05/16 05:16:30;;;;;;;3.08;1.50;;;;;;;19.79;47.60;101952.81;5118870;27;20046;-67
2023/05/16 05:18:55;;;;;;;1.95;1.00;;;;;;;19.81;47.46;101953.47;5121859;27;20039;-67
2023/05/16 05:21:24;;;;;;;1.45;1.00;;;;;;;19.78;47.65;101951.97;5117769;27;20043;-66
2023/05/16 05:23:49;;;;;;;0.95;0.82;;;;;;;19.77;47.61;101952.13;5118327;27;20506;-67
2023/05/16 05:26:15;;;;;;;2.08;1.05;;;;;;;19.78;47.52;101948.50;5120073;27;20039;-67
2023/05/16 05:28:41;;;;;;;1.95;0.93;;;;;;;19.78;47.46;101959.91;5116422;27;20030;-67
2023/05/16 05:31:07;;;;;;;1.10;1.00;;;;;;;19.77;47.70;101952.13;5115030;27;20051;-67
2023/05/16 05:33:32;;;;;;;2.97;0.88;;;;;;;19.77;47.55;101954.78;5120507;27;20047;-67
2023/05/16 05:35:58;;;;;;;1.50;1.08;;;;;;;19.77;47.42;101960.06;5116491;27;20499;-66
2023/05/16 05:38:24;;;;;;;2.47;1.00;;;;;;;19.75;47.48;101959.34;5120681;27;20544;-66
2023/05/16 05:40:49;;;;;;;2.25;1.25;;;;;;;19.76;47.62;101967.16;5118843;28;20111;-68
2023/05/16 05:43:15;;;;;;;2.03;1.05;;;;;;;19.75;47.52;101965.50;5118169;28;20040;-68
2023/05/16 05:45:41;;;;;;;1.33;0.88;;;;;;;19.75;47.59;101969.94;5117485;27;20048;-67
2023/05/16 05:48:07;;;;;;;1.67;0.80;;;;;;;19.77;47.59;101966.19;5116728;28;20035;-67
2023/05/16 05:50:33;;;;;;;2.47;0.90;;;;;;;19.80;47.43;101971.16;5121909;28;20054;-67
2023/05/16 05:52:58;;;;;;;2.75;0.90;;;;;;;19.77;47.57;101976.75;5121108;28;20028;-67
2023/05/16 05:55:24;;;;;;;2.60;1.33;;;;;;;19.79;47.37;101969.50;5113069;28;20031;-71
2023/05/16 05:57:49;;;;;;;7.55;1.80;;;;;;;19.79;47.41;101973.94;5115799;28;20047;-69
2023/05/16 06:00:15;;;;;;;6.95;1.85;;;;;;;19.75;47.38;101967.28;5115527;27;20101;-68
2023/05/16 06:02:40;;;;;;;8.82;2.97;;;;;;;19.77;47.26;101966.19;5118491;28;20034;-68
2023/05/16 06:05:06;;;;;;;7.75;3.17;;;;;;;19.75;47.21;101970.78;5120096;28;20050;-68
2023/05/16 06:07:32;;;;;;;16.00;2.72;;;;;;;19.76;47.03;101971.63;5119099;28;20042;-68
2023/05/16 06:09:58;;;;;;;14.10;2.88;;;;;;;19.77;46.91;101968.81;5118411;27;20043;-68
2023/05/16 06:12:24;;;;;;;10.65;2.50;;;;;;;19.77;46.81;101973.28;5121055;28;20126;-67
2023/05/16 06:14:52;;;;;;;17.80;2.60;;;;;;;19.78;46.81;101980.22;5120088;28;20043;-68
2023/05/16 06:17:18;;;;;;;9.77;3.72;;;;;;;19.78;46.75;101978.41;5122532;28;20369;-68
2023/05/16 06:19:44;;;;;;;12.52;3.08;;;;;;;19.80;46.77;101988.81;5113420;28;20050;-69
2023/05/16 06:22:09;;;;;;;6.60;2.40;;;;;;;19.82;46.60;101984.22;5114027;27;20039;-67
2023/05/16 06:24:35;;;;;;;15.30;3.08;;;;;;;19.84;46.46;101990.19;5119131;28;20080;-69
2023/05/16 06:27:00;;;;;;;11.88;2.55;;;;;;;19.88;46.43;101989.72;5116332;27;20050;-68
2023/05/16 06:29:26;;;;;;;12.23;3.45;;;;;;;19.89;46.21;101982.63;5116631;27;20039;-68
2023/05/16 06:31:51;;;;;;;9.10;2.22;;;;;;;19.90;46.15;101985.09;5118758;27;20035;-68
2023/05/16 06:34:17;;;;;;;11.48;2.45;;;;;;;19.88;46.05;101979.13;5123078;27;20658;-68
2023/05/16 06:36:43;;;;;;;7.10;1.98;;;;;;;19.96;45.79;101981.03;5118921;27;20055;-68
2023/05/16 06:39:08;;;;;;;7.70;1.98;;;;;;;20.00;45.59;101992.13;5114363;27;20075;-68
2023/05/16 06:41:34;;;;;;;6.72;2.47;;;;;;;20.02;45.60;101998.94;5119721;27;20054;-68
2023/05/16 06:44:00;;;;;;;10.05;2.30;;;;;;;20.01;45.63;101999.09;5125126;27;20039;-68
2023/05/16 06:46:26;;;;;;;6.38;2.53;;;;;;;20.00;45.86;101997.44;5122735;27;20489;-69
2023/05/16 06:48:51;;;;;;;6.13;1.85;;;;;;;19.99;45.82;101998.41;5127581;27;20043;-68
2023/05/16 06:51:17;;;;;;;9.25;2.22;;;;;;;19.95;45.98;101997.06;5129237;27;20076;-68
2023/05/16 06:53:42;;;;;;;13.35;2.45;;;;;;;19.94;45.94;102001.50;5124316;27;20036;-68
2023/05/16 06:56:08;;;;;;;7.38;2.05;;;;;;;19.96;45.89;102004.84;5120314;27;20042;-67
2023/05/16 06:58:33;;;;;;;10.32;2.15;;;;;;;19.97;45.87;102005.66;5121853;27;20035;-68
2023/05/16 07:00:59;;;;;;;6.00;2.30;;;;;;;20.07;45.58;102011.69;5120080;27;20027;-69
2023/05/16 07:03:25;;;;;;;7.63;2.78;;;;;;;20.12;45.55;102002.34;5122912;27;20031;-69
2023/05/16 07:05:51;;;;;;;5.22;2.05;;;;;;;20.19;45.32;102008.66;5117292;27;20489;-69
2023/05/16 07:08:17;;;;;;;6.72;2.05;;;;;;;20.25;45.27;102014.31;5119328;27;20501;-69
2023/05/16 07:10:43;;;;;;;7.45;2.00;;;;;;;20.29;45.41;102003.28;5122000;27;20437;-69
2023/05/16 07:13:08;;;;;;;7.28;2.30;;;;;;;20.31;45.35;102008.41;5119872;27;20031;-69
2023/05/16 07:15:34;;;;;;;4.15;1.70;;;;;;;20.34;45.20;102006.28;5121130;27;20047;-68
2023/05/16 07:18:00;;;;;;;5.13;1.77;;;;;;;20.29;45.24;102016.50;5118906;27;20058;-67
2023/05/16 07:20:25;;;;;;;3.88;1.50;;;;;;;20.27;44.91;102012.34;5122985;27;20042;-68
2023/05/16 07:22:51;;;;;;;4.47;1.50;;;;;;;20.27;44.84;102022.91;5119306;27;20080;-68
2023/05/16 07:25:17;;;;;;;4.75;1.40;;;;;;;20.31;45.10;102019.84;5117515;27;20035;-68
2023/05/16 07:27:43;;;;;;;4.82;1.65;;;;;;;20.38;44.85;102026.16;5120437;27;20357;-68
2023/05/16 07:30:11;;;;;;;6.88;2.25;;;;;;;20.42;44.50;102021.41;5116446;27;20055;-67
2023/05/16 07:32:36;;;;;;;9.93;2.10;;;;;;;20.48;44.50;102019.00;5125066;27;20051;-68
2023/05/16 07:35:03;;;;;;;9.10;1.92;;;;;;;20.53;44.33;102021.16;5118866;27;20047;-68
2023/05/16 07:37:29;;;;;;;6.35;1.90;;;;;;;20.59;44.18;102032.94;5119584;27;20150;-67
2023/05/16 07:39:54;;;;;;;6.75;1.83;;;;;;;20.62;44.06;102030.81;5121985;27;20150;-73
2023/05/16 07:42:20;;;;;;;4.45;1.60;;;;;;;20.65;44.71;102034.97;5117123;27;20039;-71
2023/05/16 07:44:46;;;;;;;3.45;1.50;;;;;;;20.59;44.40;102028.47;5127032;27;20050;-71
2023/05/16 07:47:12;;;;;;;4.55;1.80;;;;;;;20.65;44.08;102027.03;5123656;27;20031;-72
2023/05/16 07:49:37;;;;;;;4.43;1.70;;;;;;;20.65;44.61;102032.34;5119627;27;20058;-71
2023/05/16 07:52:03;;;;;;;4.10;2.00;;;;;;;20.63;44.53;102035.09;5121560;27;20035;-71
2023/05/16 07:54:30;;;;;;;5.65;1.95;;;;;;;20.61;44.70;102037.09;5123737;27;20040;-72
2023/05/16 07:56:56;;;;;;;6.32;1.88;;;;;;;20.62;44.55;102045.84;5129232;27;20035;-72
2023/05/16 07:59:21;;;;;;;8.43;2.30;;;;;;;20.68;44.54;102039.97;5128332;27;20039;-71
2023/05/16 08:01:47;;;;;;;6.30;1.80;;;;;;;20.64;44.58;102034.13;5129473;27;20041;-71
2023/05/16 08:04:13;;;;;;;8.02;2.00;;;;;;;20.62;44.15;102036.09;5119901;27;20031;-71
2023/05/16 08:06:39;;;;;;;5.20;1.90;;;;;;;20.61;44.10;102038.91;5125243;27;20472;-71
2023/05/16 08:09:04;;;;;;;7.07;1.48;;;;;;;20.69;43.88;102047.75;5126893;27;20042;-72
2023/05/16 08:11:30;;;;;;;7.97;1.95;;;;;;;20.73;44.01;102041.13;5110692;27;20494;-71
2023/05/16 08:13:55;;;;;;;5.97;1.85;;;;;;;20.71;43.97;102037.81;5127159;27;20046;-71
2023/05/16 08:16:21;;;;;;;6.07;1.70;;;;;;;20.68;44.31;102038.16;5126083;27;20040;-71
2023/05/16 08:18:46;;;;;;;3.03;1.70;;;;;;;20.68;43.93;102042.59;5119882;27;20509;-71
2023/05/16 08:21:13;;;;;;;3.38;1.45;;;;;;;20.70;44.10;102033.53;5121870;27;20043;-70
2023/05/16 08:23:39;;;;;;;8.40;2.22;;;;;;;20.77;43.29;102039.84;5120206;27;20053;-71
2023/05/16 08:26:04;;;;;;;5.38;1.98;;;;;;;20.79;43.17;102037.84;5125242;27;20158;-71
2023/05/16 08:28:30;;;;;;;7.15;2.20;;;;;;;20.78;43.36;102033.56;5126804;27;20050;-72
2023/05/16 08:30:55;;;;;;;3.63;1.50;;;;;;;20.81;43.44;102038.53;5083195;27;20380;-65
2023/05/16 08:33:21;;;;;;;8.40;2.08;;;;;;;20.84;42.79;102041.88;5116362;27;20031;-64
2023/05/16 08:35:49;;;;;;;6.63;1.77;;;;;;;20.93;43.18;102044.41;5093174;27;20039;-64
2023/05/16 08:38:15;;;;;;;2.80;1.52;;;;;;;20.91;43.68;102072.84;5111025;27;20028;-64
2023/05/16 08:40:42;;;;;;;4.18;1.85;;;;;;;20.98;43.82;102068.56;5128018;27;20046;-64
2023/05/16 08:43:07;;;;;;;8.48;1.70;;;;;;;21.03;44.02;102074.25;5078977;27;20054;-63
2023/05/16 08:45:34;;;;;;;4.60;1.70;;;;;;;21.07;44.25;102070.28;5118455;27;20047;-64
2023/05/16 08:48:04;;;;;;;3.88;1.50;;;;;;;21.16;44.18;102067.66;5089816;27;20035;-63
2023/05/16 08:50:31;;;;;;;6.60;2.22;;;;;;;21.27;44.21;102068.25;5117282;27;20035;-62
2023/05/16 08:52:57;;;;;;;5.40;1.65;;;;;;;21.36;44.00;102069.09;5070905;27;20682;-63
2023/05/16 08:55:25;;;;;;;4.70;1.55;;;;;;;21.40;43.93;102068.66;5111770;27;20126;-63
2023/05/16 08:57:53;;;;;;;4.57;1.50;;;;;;;21.48;44.08;102059.06;5113954;27;20082;-63
2023/05/16 09:00:19;;;;;;;4.72;1.30;;;;;;;21.54;44.08;102053.94;5072286;27;20296;-63
2023/05/16 09:02:45;;;;;;;5.25;1.70;;;;;;;21.62;44.17;102050.50;5109935;27;20047;-64
2023/05/16 09:05:13;;;;;;;3.80;1.55;;;;;;;21.63;44.17;102046.84;5067388;27;20039;-64
2023/05/16 09:07:39;;;;;;;3.67;1.42;;;;;;;21.68;44.19;102042.72;5124340;27;20540;-65
2023/05/16 09:10:06;;;;;;;4.05;1.50;;;;;;;21.70;43.99;102037.25;5070785;27;21422;-64
2023/05/16 09:12:33;;;;;;;2.78;1.42;;;;;;;21.71;44.24;102044.19;5113158;27;20425;-63
2023/05/16 09:15:04;;;;;;;4.20;1.30;;;;;;;21.74;44.26;102045.72;5122840;27;20761;-64
2023/05/16 09:17:37;;;;;;;3.15;1.23;;;;;;;21.82;44.18;102051.03;5119556;27;20104;-65
2023/05/16 09:20:30;;;;;;;3.97;1.20;;;;;;;21.83;43.81;102048.22;5084896;27;20038;-64
2023/05/16 09:22:58;;;;;;;1.88;1.20;;;;;;;21.83;44.00;102045.56;5079093;27;20616;-61
2023/05/16 09:25:26;;;;;;;5.32;1.38;;;;;;;21.81;43.46;102050.19;5107296;27;20179;-64
2023/05/16 09:27:56;;;;;;;3.33;1.90;;;;;;;21.84;43.53;102043.72;5087789;27;20050;-63
2023/05/16 09:30:26;;;;;;;2.92;1.35;;;;;;;21.85;43.36;102048.88;5117186;27;20171;-63
2023/05/16 09:32:53;;;;;;;2.85;0.93;;;;;;;21.82;43.52;102051.03;5099230;27;20057;-65
2023/05/16 09:35:20;;;;;;;2.15;1.20;;;;;;;21.84;43.24;102051.69;5106488;27;20043;-64
2023/05/16 09:37:47;;;;;;;4.22;1.45;;;;;;;21.83;43.21;102050.88;5109171;27;20473;-63
2023/05/16 09:40:13;;;;;;;3.65;1.73;;;;;;;21.84;43.23;102049.03;5119907;27;20120;-65
2023/05/16 09:42:39;;;;;;;3.67;1.42;;;;;;;21.81;43.02;102052.84;5119445;27;20084;-64
2023/05/16 09:45:05;;;;;;;3.85;1.50;;;;;;;21.82;43.42;102045.72;5075866;28;20035;-65
2023/05/16 09:47:31;;;;;;;2.33;1.05;;;;;;;21.80;43.19;102055.66;5116880;28;20047;-65
2023/05/16 09:49:57;;;;;;;2.90;1.60;;;;;;;21.76;43.42;102052.53;5081720;28;20043;-64
2023/05/16 09:52:26;;;;;;;3.08;1.23;;;;;;;21.73;43.42;102058.16;5123954;28;20031;-64
2023/05/16 09:54:53;;;;;;;4.00;1.20;;;;;;;21.69;43.29;102062.94;5075065;28;20219;-65
2023/05/16 09:57:20;;;;;;;1.73;0.90;;;;;;;21.71;43.42;102060.94;5115948;28;20035;-64
2023/05/16 09:59:46;;;;;;;3.95;1.48;;;;;;;21.70;43.40;102051.31;5078346;28;20043;-65
2023/05/16 10:02:12;;;;;;;3.92;1.10;;;;;;;21.69;43.25;102048.84;5104940;27;20117;-65
2023/05/16 10:04:38;;;;;;;5.43;1.45;;;;;;;21.71;43.12;102060.94;5118612;27;20027;-64
2023/05/16 10:07:05;;;;;;;3.05;1.10;;;;;;;21.70;43.22;102056.63;5080115;27;20802;-65
2023/05/16 10:09:32;;;;;;;2.72;1.05;;;;;;;21.68;43.40;102063.09;5123942;27;20111;-65
2023/05/16 10:12:02;;;;;;;3.67;1.10;;;;;;;21.62;43.42;102059.28;5087088;27;20043;-65
2023/05/16 10:14:32;;;;;;;1.35;1.00;;;;;;;21.60;43.19;102069.22;5129172;27;20039;-64
2023/05/16 10:16:59;;;;;;;6.00;1.55;;;;;;;21.56;43.53;102065.22;5076273;27;21189;-65
2023/05/16 10:19:27;;;;;;;4.28;1.70;;;;;;;21.57;43.55;102071.38;5126619;27;20533;-65
2023/05/16 10:22:00;;;;;;;2.28;1.15;;;;;;;21.57;43.48;102066.06;5110623;27;20822;-65
2023/05/16 10:24:32;;;;;;;2.75;1.40;;;;;;;21.57;43.67;102058.94;5118987;27;20035;-65
2023/05/16 10:26:57;;;;;;;3.22;1.40;;;;;;;21.57;43.13;102052.81;5084257;27;20122;-64
2023/05/16 10:29:23;;;;;;;4.05;1.33;;;;;;;21.54;43.25;102047.81;5126247;27;20058;-64
2023/05/16 10:31:49;;;;;;;2.83;0.90;;;;;;;21.44;43.64;102041.81;5083072;27;20122;-64
2023/05/16 10:34:16;;;;;;;3.13;1.10;;;;;;;21.49;43.41;102066.00;5123738;27;20110;-64
2023/05/16 10:36:44;;;;;;;3.83;1.38;;;;;;;21.44;43.60;102071.81;5080639;27;20039;-64
2023/05/16 10:39:10;;;;;;;2.45;0.68;;;;;;;21.46;43.82;102071.66;5124175;27;20039;-64
2023/05/16 10:41:36;;;;;;;2.50;1.10;;;;;;;21.46;43.09;102069.00;5075800;27;20051;-65
2023/05/16 10:44:03;;;;;;;3.25;1.08;;;;;;;21.36;43.34;102056.72;5122625;27;20047;-64
2023/05/16 10:46:30;;;;;;;3.22;0.90;;;;;;;21.47;43.33;102062.69;5112427;27;20032;-64
2023/05/16 10:48:56;;;;;;;3.63;1.17;;;;;;;21.49;43.44;102063.38;5124311;27;20044;-64
2023/05/16 10:51:21;;;;;;;2.22;0.88;;;;;;;21.47;43.28;102060.06;5080143;27;20031;-64
2023/05/16 10:53:50;;;;;;;2.55;1.13;;;;;;;21.45;43.39;102062.88;5120694;27;20115;-64
2023/05/16 10:56:22;;;;;;;3.20;1.13;;;;;;;21.45;43.32;102060.22;5083446;27;20055;-65
2023/05/16 10:58:48;;;;;;;2.20;0.95;;;;;;;21.48;43.16;102056.41;5124485;27;20023;-64
2023/05/16 11:01:27;;;;;;;5.57;0.88;;;;;;;21.46;43.30;102058.41;5082423;27;20162;-64
2023/05/16 11:03:56;;;;;;;1.73;1.00;;;;;;;21.46;43.45;102058.41;5116616;27;20867;-64
2023/05/16 11:06:40;;;;;;;3.50;1.15;;;;;;;21.40;43.70;102062.53;5082705;27;20039;-63
2023/05/16 11:09:09;;;;;;;1.77;1.35;;;;;;;21.37;43.37;102068.97;5121377;27;20027;-64
2023/05/16 11:11:41;;;;;;;2.17;1.10;;;;;;;21.37;43.77;102076.09;5114371;27;20042;-64
2023/05/16 11:14:07;;;;;;;2.50;0.95;;;;;;;21.40;43.05;102063.34;5121771;27;20103;-65
2023/05/16 11:16:34;;;;;;;2.92;1.40;;;;;;;21.40;42.33;102073.13;5081549;27;20051;-65
2023/05/16 11:19:07;;;;;;;4.60;1.73;;;;;;;21.39;41.78;102064.34;5124632;27;20044;-65
2023/05/16 11:22:03;;;;;;;5.00;1.23;;;;;;;21.32;41.87;102063.31;5079855;27;20031;-65
2023/05/16 11:24:30;;;;;;;4.75;1.30;;;;;;;21.32;41.38;102065.13;5123356;27;20050;-64